createdAt,value
2018-03-17T00:02:00.100Z,101932.64
2018-03-17T00:04:27.558Z,101929.40
2018-03-17T00:06:55.013Z,101937.59
2018-03-17T00:09:22.543Z,101935.13
2018-03-17T00:11:50.030Z,101935.48
2018-03-17T00:14:17.486Z,101929.38
2018-03-17T00:16:44.969Z,101930.53
2018-03-17T00:19:12.506Z,101927.34
2018-03-17T00:21:41.035Z,101937.37
2018-03-17T00:24:08.489Z,101951.20
2018-03-17T00:26:35.957Z,101948.81
2018-03-17T00:29:03.443Z,101948.42
2018-03-17T00:31:30.909Z,101951.92
2018-03-17T00:33:58.352Z,101932.32
2018-03-17T00:36:25.830Z,101931.95
2018-03-17T00:38:53.292Z,101928.84
2018-03-17T00:41:20.838Z,101930.07
2018-03-17T00:43:48.289Z,101936.02
2018-03-17T00:46:15.780Z,101938.91
2018-03-17T00:48:43.246Z,101936.17
2018-03-17T00:51:11.668Z,101948.47
2018-03-17T00:53:39.126Z,101943.48
2018-03-17T00:56:06.588Z,101928.27
2018-03-17T00:58:34.042Z,101939.94
2018-03-17T01:01:01.504Z,101936.86
2018-03-17T01:03:28.969Z,101928.63
2018-03-17T01:05:57.440Z,101938.31
2018-03-17T01:08:24.913Z,101943.89
2018-03-17T01:10:52.474Z,101949.45
2018-03-17T01:13:19.921Z,101940.77
2018-03-17T01:15:47.381Z,101943.41
2018-03-17T01:18:14.828Z,101938.83
2018-03-17T01:20:42.294Z,101937.17
2018-03-17T01:23:09.741Z,101927.71
2018-03-17T01:25:37.201Z,101919.56
2018-03-17T01:28:04.641Z,101910.53
2018-03-17T01:30:32.106Z,101919.05
2018-03-17T01:32:59.557Z,101912.89
2018-03-17T01:35:27.020Z,101914.83
2018-03-17T01:37:54.464Z,101904.19
2018-03-17T01:40:21.927Z,101901.53
2018-03-17T01:42:49.377Z,101915.65
2018-03-17T01:45:16.847Z,101907.52
2018-03-17T01:47:44.301Z,101902.09
2018-03-17T01:50:11.749Z,101900.34
2018-03-17T01:52:39.215Z,101903.83
2018-03-17T01:55:06.671Z,101898.20
2018-03-17T01:57:34.144Z,101894.36
2018-03-17T02:00:01.603Z,101887.52
2018-03-17T02:02:30.073Z,101890.69
2018-03-17T02:04:57.520Z,101888.44
2018-03-17T02:07:24.986Z,101906.20
2018-03-17T02:09:52.434Z,101913.24
2018-03-17T02:12:19.910Z,101915.17
2018-03-17T02:14:47.365Z,101894.78
2018-03-17T02:17:14.829Z,101887.02
2018-03-17T02:19:42.281Z,101868.05
2018-03-17T02:22:09.805Z,101877.83
2018-03-17T02:24:37.277Z,101883.75
2018-03-17T02:27:04.749Z,101888.41
2018-03-17T02:29:32.205Z,101873.73
2018-03-17T02:31:59.670Z,101869.86
2018-03-17T02:34:27.134Z,101863.23
2018-03-17T02:36:54.601Z,101870.50
2018-03-17T02:39:22.149Z,101864.43
2018-03-17T02:41:49.619Z,101855.38
2018-03-17T02:44:17.077Z,101866.44
2018-03-17T02:46:44.686Z,101862.48
2018-03-17T02:49:12.138Z,101863.78
2018-03-17T02:51:39.607Z,101871.05
2018-03-17T02:54:07.066Z,101871.40
2018-03-17T02:56:35.444Z,101876.98
2018-03-17T02:59:02.888Z,101879.26
2018-03-17T03:01:30.359Z,101901.28
2018-03-17T03:03:57.813Z,101885.44
2018-03-17T03:06:25.276Z,101889.66
2018-03-17T03:08:52.730Z,101890.19
2018-03-17T03:11:20.189Z,101876.55
2018-03-17T03:13:47.632Z,101888.92
2018-03-17T03:16:15.093Z,101901.68
2018-03-17T03:18:42.544Z,101902.16
2018-03-17T03:21:10.013Z,101888.22
2018-03-17T03:23:37.460Z,101889.19
2018-03-17T03:26:04.920Z,101879.73
2018-03-17T03:28:32.369Z,101909.09
2018-03-17T03:30:59.835Z,101881.70
2018-03-17T03:33:27.301Z,101888.45
2018-03-17T03:35:54.750Z,101873.84
2018-03-17T03:38:22.229Z,101873.73
2018-03-17T03:40:49.677Z,101876.62
2018-03-17T03:43:17.140Z,101867.48
2018-03-17T03:45:45.599Z,101863.91
2018-03-17T03:48:13.068Z,101873.20
2018-03-17T03:50:40.508Z,101869.50
2018-03-17T03:53:08.902Z,101862.41
2018-03-17T03:55:36.361Z,101878.27
2018-03-17T03:58:04.853Z,101883.91
2018-03-17T04:00:32.299Z,101879.98
2018-03-17T04:03:00.668Z,101869.23
2018-03-17T04:05:28.137Z,101877.33
2018-03-17T04:07:55.600Z,101869.26
2018-03-17T04:10:23.053Z,101874.88
2018-03-17T04:12:50.617Z,101867.91
2018-03-17T04:15:18.069Z,101874.59
2018-03-17T04:17:45.537Z,101886.02
2018-03-17T04:20:13.082Z,101896.70
2018-03-17T04:22:40.540Z,101899.37
2018-03-17T04:25:07.976Z,101895.36
2018-03-17T04:27:35.449Z,101912.65
2018-03-17T04:30:02.906Z,101900.84
2018-03-17T04:32:30.397Z,101898.74
2018-03-17T04:35:01.086Z,101886.71
2018-03-17T04:37:29.572Z,101886.59
2018-03-17T04:40:00.301Z,101892.52
2018-03-17T04:42:29.719Z,101891.44
2018-03-17T04:44:57.178Z,101896.48
2018-03-17T04:47:24.654Z,101889.72
2018-03-17T04:49:52.209Z,101890.92
2018-03-17T04:52:20.666Z,101902.73
2018-03-17T04:54:48.121Z,101901.93
2018-03-17T04:57:15.605Z,101898.97
2018-03-17T04:59:43.057Z,101894.63
2018-03-17T05:02:10.521Z,101909.48
2018-03-17T05:04:38.161Z,101908.05
2018-03-17T05:07:05.624Z,101910.17
2018-03-17T05:09:33.065Z,101905.75
2018-03-17T05:12:00.533Z,101909.59
2018-03-17T05:14:27.973Z,101906.48
2018-03-17T05:16:55.429Z,101918.75
2018-03-17T05:19:22.868Z,101920.47
2018-03-17T05:21:50.357Z,101910.34
2018-03-17T05:24:17.817Z,101912.91
2018-03-17T05:26:45.469Z,101909.80
2018-03-17T05:29:12.929Z,101927.27
2018-03-17T05:31:41.313Z,101928.70
2018-03-17T05:34:08.782Z,101913.97
2018-03-17T05:36:36.234Z,101918.84
2018-03-17T05:39:03.697Z,101915.83
2018-03-17T05:41:31.139Z,101909.84
2018-03-17T05:43:58.589Z,101933.09
2018-03-17T05:46:26.019Z,101933.70
2018-03-17T05:48:53.464Z,101940.29
2018-03-17T05:51:20.941Z,101937.49
2018-03-17T05:53:48.379Z,101926.83
2018-03-17T05:56:15.822Z,101941.73
2018-03-17T05:58:44.235Z,101946.47
2018-03-17T06:01:11.711Z,101939.98
2018-03-17T06:03:39.164Z,101950.05
2018-03-17T06:06:06.600Z,101931.20
2018-03-17T06:08:34.055Z,101951.94
2018-03-17T06:11:01.500Z,101963.19
2018-03-17T06:13:28.961Z,101956.84
2018-03-17T06:15:56.402Z,101943.36
2018-03-17T06:18:23.847Z,101955.92
2018-03-17T06:20:51.292Z,101938.81
2018-03-17T06:23:19.710Z,101958.31
2018-03-17T06:25:47.138Z,101949.19
2018-03-17T06:28:14.581Z,101958.03
2018-03-17T06:30:42.041Z,101960.23
2018-03-17T06:33:09.506Z,101985.72
2018-03-17T06:35:37.041Z,101963.84
2018-03-17T06:38:04.501Z,101964.36
2018-03-17T06:40:31.962Z,101963.38
2018-03-17T06:42:59.439Z,101968.20
2018-03-17T06:45:26.894Z,101962.56
2018-03-17T06:47:54.357Z,101972.19
2018-03-17T06:50:21.809Z,101980.55
2018-03-17T06:52:49.283Z,102001.66
2018-03-17T06:55:16.758Z,102003.78
2018-03-17T06:57:44.241Z,101997.78
2018-03-17T07:00:11.693Z,102006.49
2018-03-17T07:02:39.167Z,101988.60
2018-03-17T07:05:06.621Z,101968.23
2018-03-17T07:07:34.200Z,101996.06
2018-03-17T07:10:01.645Z,102004.58
2018-03-17T07:12:29.125Z,102014.02
2018-03-17T07:14:56.581Z,102013.73
2018-03-17T07:17:24.056Z,102002.37
2018-03-17T07:19:51.507Z,101991.52
2018-03-17T07:22:18.974Z,101996.16
2018-03-17T07:24:46.441Z,101984.86
2018-03-17T07:27:13.906Z,101990.56
2018-03-17T07:29:42.269Z,101991.30
2018-03-17T07:32:14.458Z,101989.06
2018-03-17T07:34:41.914Z,101992.94
2018-03-17T07:37:09.393Z,102009.76
2018-03-17T07:39:36.856Z,102001.70
2018-03-17T07:42:05.325Z,102010.60
2018-03-17T07:44:33.825Z,102032.28
2018-03-17T07:47:01.293Z,102019.14
2018-03-17T07:49:28.732Z,102016.46
2018-03-17T07:51:56.190Z,102015.20
2018-03-17T07:54:23.636Z,102020.67
2018-03-17T07:56:52.042Z,102009.28
2018-03-17T07:59:19.491Z,102017.21
2018-03-17T08:01:47.876Z,102006.11
2018-03-17T08:04:15.342Z,102000.87
2018-03-17T08:06:42.810Z,101999.75
2018-03-17T08:09:10.252Z,101994.05
2018-03-17T08:11:37.719Z,101992.11
2018-03-17T08:14:05.167Z,101989.39
2018-03-17T08:16:32.628Z,102007.31
2018-03-17T08:19:00.098Z,102008.38
2018-03-17T08:21:27.586Z,101995.96
2018-03-17T08:23:56.045Z,102004.97
2018-03-17T08:26:23.521Z,101995.84
2018-03-17T08:28:52.918Z,101978.70
2018-03-17T08:31:20.418Z,102000.86
2018-03-17T08:33:47.889Z,101988.39
2018-03-17T08:36:15.581Z,101990.59
2018-03-17T08:38:43.065Z,101983.83
2018-03-17T08:41:11.542Z,101993.33
2018-03-17T08:43:39.010Z,101986.72
2018-03-17T08:46:07.494Z,101989.09
2018-03-17T08:48:34.942Z,101988.77
2018-03-17T08:51:02.419Z,101996.31
2018-03-17T08:53:29.869Z,101989.69
2018-03-17T08:55:57.330Z,101995.53
2018-03-17T08:58:24.777Z,101982.58
2018-03-17T09:00:52.237Z,101992.20
2018-03-17T09:03:19.682Z,101991.61
2018-03-17T09:05:47.159Z,101991.47
2018-03-17T09:08:14.713Z,102003.00
2018-03-17T09:10:42.220Z,101998.16
2018-03-17T09:13:11.686Z,102016.72
2018-03-17T09:15:40.164Z,102008.74
2018-03-17T09:18:07.629Z,101989.77
2018-03-17T09:20:35.095Z,101997.39
2018-03-17T09:23:02.563Z,101983.03
2018-03-17T09:25:30.015Z,101962.89
2018-03-17T09:27:57.497Z,101998.80
2018-03-17T09:30:24.965Z,101997.04
2018-03-17T09:32:52.431Z,101989.61
2018-03-17T09:35:19.889Z,101991.26
2018-03-17T09:37:48.381Z,101986.56
2018-03-17T09:40:17.872Z,101980.93
2018-03-17T09:42:45.337Z,101986.42
2018-03-17T09:45:12.792Z,101979.45
2018-03-17T09:47:40.256Z,101993.15
2018-03-17T09:50:07.721Z,101993.38
2018-03-17T09:52:35.163Z,102008.00
2018-03-17T09:55:02.650Z,101995.92
2018-03-17T09:57:31.080Z,101980.59
2018-03-17T09:59:58.560Z,101974.02
2018-03-17T10:02:26.039Z,101984.88
2018-03-17T10:04:53.547Z,101990.41
2018-03-17T10:07:20.979Z,102000.25
2018-03-17T10:09:49.813Z,101978.48
2018-03-17T10:12:17.285Z,101984.18
2018-03-17T10:14:45.733Z,102002.45
2018-03-17T10:17:14.177Z,101979.06
2018-03-17T10:19:41.625Z,102006.87
2018-03-17T10:22:10.070Z,101983.36
2018-03-17T10:24:37.529Z,101987.67
2018-03-17T10:27:06.046Z,102009.50
2018-03-17T10:29:33.512Z,102026.03
2018-03-17T10:32:00.999Z,102007.44
2018-03-17T10:34:28.469Z,102015.91
2018-03-17T10:36:55.934Z,102004.45
2018-03-17T10:39:23.378Z,101999.02
2018-03-17T10:41:50.857Z,101996.22
2018-03-17T10:44:18.318Z,101988.97
2018-03-17T10:46:46.816Z,101977.20
2018-03-17T10:49:15.244Z,101980.98
2018-03-17T10:51:43.644Z,101983.15
2018-03-17T10:54:11.110Z,101977.56
2018-03-17T10:56:38.574Z,101989.93
2018-03-17T10:59:06.041Z,101995.23
2018-03-17T11:01:42.053Z,101986.24
2018-03-17T11:04:11.489Z,101997.13
2018-03-17T11:06:40.894Z,101997.20
2018-03-17T11:09:09.256Z,101979.84
2018-03-17T11:11:36.779Z,101994.09
2018-03-17T11:14:04.288Z,101974.37
2018-03-17T11:16:32.744Z,101998.41
2018-03-17T11:19:00.209Z,101998.98
2018-03-17T11:21:27.665Z,101996.90
2018-03-17T11:23:55.115Z,101990.06
2018-03-17T11:26:22.610Z,101983.78
2018-03-17T11:28:50.976Z,101992.34
2018-03-17T11:31:18.429Z,102008.59
2018-03-17T11:33:46.952Z,101998.36
2018-03-17T11:36:14.386Z,101995.31
2018-03-17T11:38:41.858Z,101997.56
2018-03-17T11:41:09.314Z,101986.76
2018-03-17T11:43:36.792Z,101991.94
2018-03-17T11:46:04.245Z,101982.10
2018-03-17T11:48:31.706Z,101991.16
2018-03-17T11:50:59.158Z,101989.87
2018-03-17T11:53:26.666Z,101977.22
2018-03-17T11:55:55.151Z,101995.50
2018-03-17T11:58:22.701Z,101974.11
2018-03-17T12:00:52.053Z,101976.45
2018-03-17T12:03:19.526Z,101960.63
2018-03-17T12:05:46.985Z,101969.59
2018-03-17T12:08:14.448Z,101959.44
2018-03-17T12:10:41.890Z,101955.12
2018-03-17T12:13:09.358Z,101977.45
2018-03-17T12:15:36.852Z,101979.93
2018-03-17T12:18:05.322Z,101974.30
2018-03-17T12:20:32.769Z,101960.52
2018-03-17T12:23:01.161Z,101968.13
2018-03-17T12:25:29.620Z,101965.70
2018-03-17T12:27:57.082Z,101973.38
2018-03-17T12:30:24.530Z,101958.95
2018-03-17T12:32:51.993Z,101981.70
2018-03-17T12:35:19.451Z,101965.52
2018-03-17T12:37:46.929Z,101965.08
2018-03-17T12:40:14.395Z,101964.71
2018-03-17T12:42:41.841Z,101949.17
2018-03-17T12:45:13.291Z,101942.18
2018-03-17T12:47:40.731Z,101966.11
2018-03-17T12:50:08.178Z,101965.85
2018-03-17T12:52:35.634Z,101965.17
2018-03-17T12:55:03.254Z,101946.09
2018-03-17T12:57:31.615Z,101947.41
2018-03-17T12:59:59.085Z,101940.27
2018-03-17T13:02:26.540Z,101959.39
2018-03-17T13:04:54.001Z,101956.48
2018-03-17T13:07:21.490Z,101937.91
2018-03-17T13:09:49.359Z,101959.17
2018-03-17T13:12:16.845Z,101950.17
2018-03-17T13:14:44.311Z,101944.14
2018-03-17T13:17:11.761Z,101945.37
2018-03-17T13:19:39.232Z,101951.08
2018-03-17T13:22:06.713Z,101947.28
2018-03-17T13:24:34.185Z,101940.02
2018-03-17T13:27:13.522Z,101948.34
2018-03-17T13:29:40.968Z,101944.48
2018-03-17T13:32:20.198Z,101947.47
2018-03-17T13:34:53.937Z,101947.16
2018-03-17T13:37:33.194Z,101938.23
2018-03-17T13:40:02.674Z,101950.39
2018-03-17T13:42:30.137Z,101936.74
2018-03-17T13:44:58.528Z,101945.42
2018-03-17T13:47:26.941Z,101936.23
2018-03-17T13:49:54.398Z,101923.98
2018-03-17T13:52:21.852Z,101919.48
2018-03-17T13:54:49.385Z,101976.50
2018-03-17T13:57:16.830Z,101955.33
2018-03-17T13:59:44.302Z,101927.73
2018-03-17T14:02:11.754Z,101933.86
2018-03-17T14:04:39.262Z,101936.48
2018-03-17T14:07:07.673Z,101933.59
2018-03-17T14:09:37.050Z,101929.17
2018-03-17T14:12:04.497Z,101920.17
2018-03-17T14:14:31.988Z,101932.42
2018-03-17T14:16:59.444Z,101928.30
2018-03-17T14:19:26.898Z,101923.80
2018-03-17T14:21:54.374Z,101935.77
2018-03-17T14:24:24.490Z,101922.89
2018-03-17T14:26:52.129Z,101941.71
2018-03-17T14:29:19.612Z,101932.38
2018-03-17T14:31:47.135Z,101928.75
2018-03-17T14:34:14.753Z,101907.02
2018-03-17T14:36:42.230Z,101929.32
2018-03-17T14:39:09.737Z,101925.60
2018-03-17T14:41:37.201Z,101940.95
2018-03-17T14:44:04.709Z,101948.50
2018-03-17T14:46:32.185Z,101950.38
2018-03-17T14:48:59.665Z,101928.30
2018-03-17T14:51:27.184Z,101940.91
2018-03-17T14:53:54.716Z,101953.44
2018-03-17T14:56:22.128Z,101947.77
2018-03-17T14:58:49.597Z,101937.73
2018-03-17T15:01:17.057Z,101939.88
2018-03-17T15:03:44.654Z,101952.23
2018-03-17T15:06:12.114Z,101927.18
2018-03-17T15:08:39.650Z,101940.99
2018-03-17T15:11:08.098Z,101942.11
2018-03-17T15:13:35.579Z,101946.54
2018-03-17T15:16:03.034Z,101941.14
2018-03-17T15:18:30.548Z,101947.78
2018-03-17T15:20:58.006Z,101948.39
2018-03-17T15:23:25.482Z,101953.66
2018-03-17T15:25:52.971Z,101929.38
2018-03-17T15:28:20.442Z,101939.44
2018-03-17T15:30:47.895Z,101939.82
2018-03-17T15:33:15.415Z,101931.78
2018-03-17T15:35:43.001Z,101935.30
2018-03-17T15:38:12.518Z,101950.98
2018-03-17T15:40:39.981Z,101939.34
2018-03-17T15:43:07.452Z,101946.27
2018-03-17T15:45:34.957Z,101936.33
2018-03-17T15:48:02.429Z,101944.19
2018-03-17T15:50:29.873Z,101966.98
2018-03-17T15:52:57.430Z,101951.94
2018-03-17T15:55:24.931Z,101956.77
2018-03-17T15:57:52.441Z,101950.77
2018-03-17T16:00:20.029Z,101942.28
2018-03-17T16:02:47.489Z,101951.30
2018-03-17T16:05:14.962Z,101953.27
2018-03-17T16:07:42.429Z,101962.80
2018-03-17T16:10:09.906Z,101977.36
2018-03-17T16:12:37.361Z,101956.66
2018-03-17T16:15:04.836Z,101972.58
2018-03-17T16:17:32.294Z,101973.08
2018-03-17T16:19:59.760Z,101975.29
2018-03-17T16:22:27.223Z,101960.10
2018-03-17T16:24:55.712Z,101981.64
2018-03-17T16:27:24.064Z,101968.38
2018-03-17T16:29:51.545Z,101959.04
2018-03-17T16:32:19.983Z,101962.50
2018-03-17T16:34:47.447Z,101971.40
2018-03-17T16:37:15.801Z,101981.17
2018-03-17T16:39:43.282Z,101978.28
2018-03-17T16:42:10.753Z,101982.64
2018-03-17T16:44:38.247Z,101997.57
2018-03-17T16:47:05.746Z,101991.14
2018-03-17T16:49:33.277Z,101995.05
2018-03-17T16:52:00.840Z,101983.89
2018-03-17T16:54:28.391Z,101992.42
2018-03-17T16:56:55.897Z,102001.44
2018-03-17T16:59:23.459Z,101993.38
2018-03-17T17:01:51.972Z,102004.14
2018-03-17T17:04:19.442Z,101999.05
2018-03-17T17:06:47.806Z,102013.92
2018-03-17T17:09:15.282Z,101994.10
2018-03-17T17:11:42.740Z,102014.02
2018-03-17T17:14:10.201Z,102011.48
2018-03-17T17:16:37.656Z,102035.88
2018-03-17T17:19:05.138Z,102020.52
2018-03-17T17:21:32.610Z,102017.97
2018-03-17T17:24:01.016Z,102008.10
2018-03-17T17:26:28.464Z,102023.88
2018-03-17T17:28:55.915Z,102030.78
2018-03-17T17:31:23.361Z,102012.30
2018-03-17T17:33:51.037Z,102041.42
2018-03-17T17:36:18.485Z,102032.37
2018-03-17T17:38:49.667Z,102047.84
2018-03-17T17:41:17.118Z,102051.73
2018-03-17T17:43:44.582Z,102041.45
2018-03-17T17:46:13.028Z,102059.44
2018-03-17T17:48:40.481Z,102033.73
2018-03-17T17:51:07.921Z,102037.13
2018-03-17T17:53:35.429Z,102031.22
2018-03-17T17:56:02.925Z,102048.36
2018-03-17T17:58:30.432Z,102048.78
2018-03-17T18:00:57.885Z,102040.20
2018-03-17T18:03:25.373Z,102047.89
2018-03-17T18:05:53.032Z,102058.11
2018-03-17T18:08:20.559Z,102052.12
2018-03-17T18:10:48.023Z,102056.93
2018-03-17T18:13:15.484Z,102051.38
2018-03-17T18:15:42.950Z,102052.68
2018-03-17T18:18:11.418Z,102071.53
2018-03-17T18:20:38.872Z,102068.56
2018-03-17T18:23:07.368Z,102078.01
2018-03-17T18:25:34.818Z,102049.39
2018-03-17T18:28:02.289Z,102063.14
2018-03-17T18:30:29.744Z,102065.20
2018-03-17T18:32:57.222Z,102047.66
2018-03-17T18:35:24.669Z,102071.05
2018-03-17T18:37:52.146Z,102050.92
2018-03-17T18:40:19.603Z,102068.45
2018-03-17T18:42:49.057Z,102070.25
2018-03-17T18:45:16.517Z,102064.83
2018-03-17T18:47:43.997Z,102086.74
2018-03-17T18:50:11.444Z,102069.83
2018-03-17T18:52:38.924Z,102076.29
2018-03-17T18:55:06.380Z,102077.55
2018-03-17T18:57:33.842Z,102074.05
2018-03-17T19:00:01.305Z,102079.62
2018-03-17T19:02:28.777Z,102070.16
2018-03-17T19:04:56.347Z,102076.16
2018-03-17T19:07:23.850Z,102060.30
2018-03-17T19:09:51.342Z,102094.64
2018-03-17T19:12:18.897Z,102077.69
2018-03-17T19:14:46.373Z,102081.00
2018-03-17T19:17:13.922Z,102080.80
2018-03-17T19:19:41.393Z,102077.56
2018-03-17T19:22:10.857Z,102084.89
2018-03-17T19:24:38.306Z,102087.00
2018-03-17T19:27:05.809Z,102087.48
2018-03-17T19:29:34.369Z,102073.34
2018-03-17T19:32:01.885Z,102069.88
2018-03-17T19:34:29.398Z,102078.38
2018-03-17T19:36:59.140Z,102095.86
2018-03-17T19:39:26.632Z,102087.75
2018-03-17T19:41:54.122Z,102103.58
2018-03-17T19:44:22.686Z,102101.44
2018-03-17T19:46:51.097Z,102101.09
2018-03-17T19:49:18.650Z,102094.30
2018-03-17T19:51:50.955Z,102089.55
2018-03-17T19:54:18.425Z,102091.81
2018-03-17T19:56:47.821Z,102099.52
2018-03-17T19:59:15.345Z,102081.98
2018-03-17T20:01:42.845Z,102103.31
2018-03-17T20:04:10.329Z,102100.80
2018-03-17T20:06:37.853Z,102103.83
2018-03-17T20:09:08.710Z,102102.11
2018-03-17T20:11:36.174Z,102088.45
2018-03-17T20:14:03.627Z,102102.53
2018-03-17T20:16:32.026Z,102096.16
2018-03-17T20:19:00.423Z,102091.48
2018-03-17T20:21:27.914Z,102108.61
2018-03-17T20:23:56.342Z,102104.77
2018-03-17T20:26:23.819Z,102071.80
2018-03-17T20:28:51.294Z,102094.03
2018-03-17T20:31:18.779Z,102096.58
2018-03-17T20:33:46.246Z,102105.59
2018-03-17T20:36:13.753Z,102112.88
2018-03-17T20:38:42.126Z,102104.31
2018-03-17T20:41:09.590Z,102106.00
2018-03-17T20:43:37.046Z,102085.39
2018-03-17T20:46:04.546Z,102143.57
2018-03-17T20:48:32.940Z,102091.38
2018-03-17T20:51:00.408Z,102107.66
2018-03-17T20:53:27.870Z,102101.61
2018-03-17T20:55:55.339Z,102124.69
2018-03-17T20:58:22.805Z,102116.56
2018-03-17T21:00:50.322Z,102106.72
2018-03-17T21:03:17.787Z,102101.59
2018-03-17T21:05:45.246Z,102113.09
2018-03-17T21:08:13.653Z,102108.86
2018-03-17T21:10:41.112Z,102130.20
2018-03-17T21:13:09.552Z,102131.08
2018-03-17T21:15:37.019Z,102123.77
2018-03-17T21:18:04.462Z,102128.47
2018-03-17T21:20:31.927Z,102131.02
2018-03-17T21:22:59.387Z,102119.49
2018-03-17T21:25:26.893Z,102122.41
2018-03-17T21:27:54.347Z,102119.47
2018-03-17T21:30:21.848Z,102133.56
2018-03-17T21:32:50.235Z,102126.27
2018-03-17T21:35:18.638Z,102119.52
2018-03-17T21:37:46.125Z,102121.25
2018-03-17T21:40:13.615Z,102118.75
2018-03-17T21:42:41.095Z,102121.30
2018-03-17T21:45:08.606Z,102120.34
2018-03-17T21:47:37.091Z,102121.14
2018-03-17T21:50:04.656Z,102123.25
2018-03-17T21:52:32.164Z,102128.84
2018-03-17T21:54:59.633Z,102119.42
2018-03-17T21:57:28.118Z,102121.63
2018-03-17T21:59:55.665Z,102121.55
2018-03-17T22:02:23.119Z,102117.73
2018-03-17T22:04:50.586Z,102110.84
2018-03-17T22:07:18.038Z,102130.12
2018-03-17T22:09:45.509Z,102127.61
2018-03-17T22:12:14.182Z,102100.16
2018-03-17T22:14:41.752Z,102119.41
2018-03-17T22:17:10.114Z,102119.02
2018-03-17T22:19:37.595Z,102120.73
2018-03-17T22:22:05.052Z,102128.36
2018-03-17T22:24:32.523Z,102120.19
2018-03-17T22:26:59.977Z,102112.92
2018-03-17T22:29:27.511Z,102132.11
2018-03-17T22:31:55.005Z,102131.27
2018-03-17T22:34:22.435Z,102120.59
2018-03-17T22:36:49.892Z,102120.53
2018-03-17T22:39:17.348Z,102129.47
2018-03-17T22:41:45.775Z,102110.69
2018-03-17T22:44:13.241Z,102116.00
2018-03-17T22:46:40.690Z,102124.97
2018-03-17T22:49:08.189Z,102116.42
2018-03-17T22:51:35.747Z,102117.14
2018-03-17T22:54:03.304Z,102122.05
2018-03-17T22:56:31.765Z,102124.09
2018-03-17T22:58:59.225Z,102125.56
2018-03-17T23:01:26.691Z,102125.95
2018-03-17T23:03:54.158Z,102134.52
2018-03-17T23:06:21.610Z,102131.19
2018-03-17T23:08:49.091Z,102132.52
2018-03-17T23:11:16.546Z,102138.16
2018-03-17T23:13:44.981Z,102149.30
2018-03-17T23:16:14.399Z,102147.65
2018-03-17T23:18:41.866Z,102139.08
2018-03-17T23:21:10.305Z,102149.70
2018-03-17T23:23:37.770Z,102153.97
2018-03-17T23:26:05.249Z,102146.30
2018-03-17T23:28:33.713Z,102143.41
2018-03-17T23:31:01.205Z,102158.73
2018-03-17T23:33:29.666Z,102142.14
2018-03-17T23:35:57.123Z,102151.16
2018-03-17T23:38:24.594Z,102139.20
2018-03-17T23:40:52.044Z,102155.48
2018-03-17T23:43:19.509Z,102160.19
2018-03-17T23:45:48.979Z,102155.06
2018-03-17T23:48:17.357Z,102146.08
2018-03-17T23:50:44.814Z,102143.97
2018-03-17T23:53:12.281Z,102147.79
2018-03-17T23:55:39.734Z,102162.80
2018-03-17T23:58:07.205Z,102153.77
